sensor_id;sensor_type;location;lat;lon;timestamp;temperature;humidity
8994;DHT22;4532;50.886;4.700;2023-01-29T00:02:31;1.50;99.90
8994;DHT22;4532;50.886;4.700;2023-01-29T00:04:59;1.50;99.90
8994;DHT22;4532;50.886;4.700;2023-01-29T00:07:42;1.50;99.90
8994;DHT22;4532;50.886;4.700;2023-01-29T00:10:10;1.50;99.90
8994;DHT22;4532;50.886;4.700;2023-01-29T00:12:39;1.50;99.90
8994;DHT22;4532;50.886;4.700;2023-01-29T00:15:07;1.50;99.90
8994;DHT22;4532;50.886;4.700;2023-01-29T00:17:36;1.50;99.90
8994;DHT22;4532;50.886;4.700;2023-01-29T00:20:06;1.50;99.90
8994;DHT22;4532;50.886;4.700;2023-01-29T00:22:36;1.50;99.90
8994;DHT22;4532;50.886;4.700;2023-01-29T00:25:04;1.50;99.90
8994;DHT22;4532;50.886;4.700;2023-01-29T00:27:33;1.50;99.90
8994;DHT22;4532;50.886;4.700;2023-01-29T00:30:00;1.50;99.90
8994;DHT22;4532;50.886;4.700;2023-01-29T00:32:45;1.50;99.90
8994;DHT22;4532;50.886;4.700;2023-01-29T00:35:13;1.40;99.90
8994;DHT22;4532;50.886;4.700;2023-01-29T00:37:44;1.40;99.90
8994;DHT22;4532;50.886;4.700;2023-01-29T00:40:16;1.40;99.90
8994;DHT22;4532;50.886;4.700;2023-01-29T00:42:44;1.40;99.90
8994;DHT22;4532;50.886;4.700;2023-01-29T00:45:52;1.40;99.90
8994;DHT22;4532;50.886;4.700;2023-01-29T00:48:19;1.30;99.90
8994;DHT22;4532;50.886;4.700;2023-01-29T00:50:47;1.30;99.90
8994;DHT22;4532;50.886;4.700;2023-01-29T00:53:14;1.30;99.90
8994;DHT22;4532;50.886;4.700;2023-01-29T00:55:41;1.30;99.90
8994;DHT22;4532;50.886;4.700;2023-01-29T00:58:10;1.30;99.90
8994;DHT22;4532;50.886;4.700;2023-01-29T01:00:39;1.30;99.90
8994;DHT22;4532;50.886;4.700;2023-01-29T01:03:08;1.30;99.90
8994;DHT22;4532;50.886;4.700;2023-01-29T01:05:42;1.30;99.90
8994;DHT22;4532;50.886;4.700;2023-01-29T01:08:12;1.30;99.90
8994;DHT22;4532;50.886;4.700;2023-01-29T01:11:01;1.30;99.90
8994;DHT22;4532;50.886;4.700;2023-01-29T01:13:32;1.30;99.90
8994;DHT22;4532;50.886;4.700;2023-01-29T01:16:09;1.30;99.90
8994;DHT22;4532;50.886;4.700;2023-01-29T01:18:42;1.20;99.90
8994;DHT22;4532;50.886;4.700;2023-01-29T01:21:09;1.20;99.90
8994;DHT22;4532;50.886;4.700;2023-01-29T01:23:43;1.20;99.90
8994;DHT22;4532;50.886;4.700;2023-01-29T01:26:10;1.20;99.90
8994;DHT22;4532;50.886;4.700;2023-01-29T01:28:37;1.20;99.90
8994;DHT22;4532;50.886;4.700;2023-01-29T01:31:11;1.20;99.90
8994;DHT22;4532;50.886;4.700;2023-01-29T01:33:39;1.10;99.90
8994;DHT22;4532;50.886;4.700;2023-01-29T01:36:09;1.10;99.90
8994;DHT22;4532;50.886;4.700;2023-01-29T01:38:39;1.10;99.90
8994;DHT22;4532;50.886;4.700;2023-01-29T01:41:16;1.10;99.90
8994;DHT22;4532;50.886;4.700;2023-01-29T01:46:21;1.10;99.90
8994;DHT22;4532;50.886;4.700;2023-01-29T01:48:58;1.10;99.90
8994;DHT22;4532;50.886;4.700;2023-01-29T01:51:35;1.10;99.90
8994;DHT22;4532;50.886;4.700;2023-01-29T01:54:08;1.10;99.90
8994;DHT22;4532;50.886;4.700;2023-01-29T01:56:42;1.00;99.90
8994;DHT22;4532;50.886;4.700;2023-01-29T01:59:15;1.00;99.90
8994;DHT22;4532;50.886;4.700;2023-01-29T02:01:46;1.00;99.90
8994;DHT22;4532;50.886;4.700;2023-01-29T02:04:21;1.00;99.90
8994;DHT22;4532;50.886;4.700;2023-01-29T02:07:13;1.00;99.90
8994;DHT22;4532;50.886;4.700;2023-01-29T02:10:11;1.00;99.90
8994;DHT22;4532;50.886;4.700;2023-01-29T02:12:42;1.00;99.90
8994;DHT22;4532;50.886;4.700;2023-01-29T02:15:14;1.00;99.90
8994;DHT22;4532;50.886;4.700;2023-01-29T02:17:44;1.00;99.90
8994;DHT22;4532;50.886;4.700;2023-01-29T02:20:29;0.90;99.90
8994;DHT22;4532;50.886;4.700;2023-01-29T02:28:50;0.90;99.90
8994;DHT22;4532;50.886;4.700;2023-01-29T02:31:38;0.90;99.90
8994;DHT22;4532;50.886;4.700;2023-01-29T02:34:32;0.90;99.90
8994;DHT22;4532;50.886;4.700;2023-01-29T02:37:25;0.80;99.90
8994;DHT22;4532;50.886;4.700;2023-01-29T02:42:46;0.80;99.90
8994;DHT22;4532;50.886;4.700;2023-01-29T02:48:04;0.80;99.90
8994;DHT22;4532;50.886;4.700;2023-01-29T02:50:44;0.80;99.90
8994;DHT22;4532;50.886;4.700;2023-01-29T02:53:40;0.70;99.90
8994;DHT22;4532;50.886;4.700;2023-01-29T02:56:14;0.70;99.90
8994;DHT22;4532;50.886;4.700;2023-01-29T02:58:46;0.70;99.90
8994;DHT22;4532;50.886;4.700;2023-01-29T03:01:18;0.70;99.90
8994;DHT22;4532;50.886;4.700;2023-01-29T03:03:52;0.70;99.90
8994;DHT22;4532;50.886;4.700;2023-01-29T03:06:34;0.70;99.90
8994;DHT22;4532;50.886;4.700;2023-01-29T03:09:37;0.70;99.90
8994;DHT22;4532;50.886;4.700;2023-01-29T03:12:14;0.80;99.90
8994;DHT22;4532;50.886;4.700;2023-01-29T03:15:08;0.80;99.90
8994;DHT22;4532;50.886;4.700;2023-01-29T03:17:51;0.70;99.90
8994;DHT22;4532;50.886;4.700;2023-01-29T03:20:26;0.70;99.90
8994;DHT22;4532;50.886;4.700;2023-01-29T03:23:12;0.70;99.90
8994;DHT22;4532;50.886;4.700;2023-01-29T03:25:42;0.70;99.90
8994;DHT22;4532;50.886;4.700;2023-01-29T03:28:29;0.60;99.90
8994;DHT22;4532;50.886;4.700;2023-01-29T03:31:17;0.70;99.90
8994;DHT22;4532;50.886;4.700;2023-01-29T03:34:16;0.70;99.90
8994;DHT22;4532;50.886;4.700;2023-01-29T03:36:56;0.60;99.90
8994;DHT22;4532;50.886;4.700;2023-01-29T03:39:28;0.60;99.90
8994;DHT22;4532;50.886;4.700;2023-01-29T03:44:54;0.60;99.90
8994;DHT22;4532;50.886;4.700;2023-01-29T03:55:35;0.60;99.90
8994;DHT22;4532;50.886;4.700;2023-01-29T04:06:10;0.50;99.90
8994;DHT22;4532;50.886;4.700;2023-01-29T04:11:22;0.60;99.90
8994;DHT22;4532;50.886;4.700;2023-01-29T04:13:55;0.60;99.90
8994;DHT22;4532;50.886;4.700;2023-01-29T04:16:35;0.50;99.90
8994;DHT22;4532;50.886;4.700;2023-01-29T04:19:05;0.50;99.90
8994;DHT22;4532;50.886;4.700;2023-01-29T04:21:35;0.60;99.90
8994;DHT22;4532;50.886;4.700;2023-01-29T04:24:06;0.50;99.90
8994;DHT22;4532;50.886;4.700;2023-01-29T04:26:59;0.50;99.90
8994;DHT22;4532;50.886;4.700;2023-01-29T04:29:59;0.50;99.90
8994;DHT22;4532;50.886;4.700;2023-01-29T04:33:20;0.50;99.90
8994;DHT22;4532;50.886;4.700;2023-01-29T04:41:41;0.40;99.90
8994;DHT22;4532;50.886;4.700;2023-01-29T04:44:09;0.40;99.90
8994;DHT22;4532;50.886;4.700;2023-01-29T04:46:48;0.40;99.90
8994;DHT22;4532;50.886;4.700;2023-01-29T04:52:11;0.40;99.90
8994;DHT22;4532;50.886;4.700;2023-01-29T05:00:27;0.40;99.90
8994;DHT22;4532;50.886;4.700;2023-01-29T05:02:55;0.40;99.90
8994;DHT22;4532;50.886;4.700;2023-01-29T05:05:23;0.40;99.90
8994;DHT22;4532;50.886;4.700;2023-01-29T05:07:50;0.50;99.90
8994;DHT22;4532;50.886;4.700;2023-01-29T05:10:19;0.50;99.90
8994;DHT22;4532;50.886;4.700;2023-01-29T05:12:50;0.60;99.90
8994;DHT22;4532;50.886;4.700;2023-01-29T05:15:26;0.60;99.90
8994;DHT22;4532;50.886;4.700;2023-01-29T05:17:58;0.60;99.90
8994;DHT22;4532;50.886;4.700;2023-01-29T05:20:34;0.70;99.90
8994;DHT22;4532;50.886;4.700;2023-01-29T05:23:02;0.70;99.90
8994;DHT22;4532;50.886;4.700;2023-01-29T05:25:32;0.70;99.90
8994;DHT22;4532;50.886;4.700;2023-01-29T05:28:02;0.70;99.90
8994;DHT22;4532;50.886;4.700;2023-01-29T05:30:53;0.70;99.90
8994;DHT22;4532;50.886;4.700;2023-01-29T05:33:30;0.70;99.90
8994;DHT22;4532;50.886;4.700;2023-01-29T05:35:58;0.80;99.90
8994;DHT22;4532;50.886;4.700;2023-01-29T05:38:28;0.80;99.90
8994;DHT22;4532;50.886;4.700;2023-01-29T05:40:57;0.80;99.90
8994;DHT22;4532;50.886;4.700;2023-01-29T05:43:27;0.80;99.90
8994;DHT22;4532;50.886;4.700;2023-01-29T05:46:01;0.90;99.90
8994;DHT22;4532;50.886;4.700;2023-01-29T05:48:33;0.90;99.90
8994;DHT22;4532;50.886;4.700;2023-01-29T05:51:02;0.90;99.90
8994;DHT22;4532;50.886;4.700;2023-01-29T05:53:30;0.90;99.90
8994;DHT22;4532;50.886;4.700;2023-01-29T05:56:00;0.90;99.90
8994;DHT22;4532;50.886;4.700;2023-01-29T05:58:33;0.90;99.90
8994;DHT22;4532;50.886;4.700;2023-01-29T06:01:14;1.00;99.90
8994;DHT22;4532;50.886;4.700;2023-01-29T06:03:42;1.00;99.90
8994;DHT22;4532;50.886;4.700;2023-01-29T06:06:12;1.00;99.90
8994;DHT22;4532;50.886;4.700;2023-01-29T06:08:39;1.00;99.90
8994;DHT22;4532;50.886;4.700;2023-01-29T06:11:08;1.10;99.90
8994;DHT22;4532;50.886;4.700;2023-01-29T06:13:36;1.10;99.90
8994;DHT22;4532;50.886;4.700;2023-01-29T06:16:07;1.20;99.90
8994;DHT22;4532;50.886;4.700;2023-01-29T06:18:40;1.20;99.90
8994;DHT22;4532;50.886;4.700;2023-01-29T06:21:10;1.30;99.90
8994;DHT22;4532;50.886;4.700;2023-01-29T06:23:40;1.30;99.90
8994;DHT22;4532;50.886;4.700;2023-01-29T06:26:10;1.30;99.90
8994;DHT22;4532;50.886;4.700;2023-01-29T06:28:40;1.40;99.90
8994;DHT22;4532;50.886;4.700;2023-01-29T06:31:09;1.40;99.90
8994;DHT22;4532;50.886;4.700;2023-01-29T06:34:01;1.40;99.90
8994;DHT22;4532;50.886;4.700;2023-01-29T06:36:30;1.40;99.90
8994;DHT22;4532;50.886;4.700;2023-01-29T06:39:00;1.40;99.90
8994;DHT22;4532;50.886;4.700;2023-01-29T06:41:27;1.40;99.90
8994;DHT22;4532;50.886;4.700;2023-01-29T06:43:57;1.40;99.90
8994;DHT22;4532;50.886;4.700;2023-01-29T06:46:24;1.40;99.90
8994;DHT22;4532;50.886;4.700;2023-01-29T06:48:57;1.50;99.90
8994;DHT22;4532;50.886;4.700;2023-01-29T06:51:27;1.50;99.90
8994;DHT22;4532;50.886;4.700;2023-01-29T06:53:57;1.50;99.90
8994;DHT22;4532;50.886;4.700;2023-01-29T06:56:24;1.50;99.90
8994;DHT22;4532;50.886;4.700;2023-01-29T06:58:51;1.60;99.90
8994;DHT22;4532;50.886;4.700;2023-01-29T07:01:19;1.60;99.90
8994;DHT22;4532;50.886;4.700;2023-01-29T07:04:01;1.60;99.90
8994;DHT22;4532;50.886;4.700;2023-01-29T07:06:31;1.60;99.90
8994;DHT22;4532;50.886;4.700;2023-01-29T07:08:59;1.70;99.90
8994;DHT22;4532;50.886;4.700;2023-01-29T07:11:35;1.70;99.90
8994;DHT22;4532;50.886;4.700;2023-01-29T07:14:06;1.70;99.90
8994;DHT22;4532;50.886;4.700;2023-01-29T07:16:33;1.70;99.90
8994;DHT22;4532;50.886;4.700;2023-01-29T07:19:01;1.70;99.90
8994;DHT22;4532;50.886;4.700;2023-01-29T07:21:33;1.80;99.90
8994;DHT22;4532;50.886;4.700;2023-01-29T07:24:00;1.80;99.90
8994;DHT22;4532;50.886;4.700;2023-01-29T07:26:34;1.80;99.90
8994;DHT22;4532;50.886;4.700;2023-01-29T07:29:05;1.80;99.90
8994;DHT22;4532;50.886;4.700;2023-01-29T07:31:33;1.90;99.90
8994;DHT22;4532;50.886;4.700;2023-01-29T07:34:00;1.90;99.90
8994;DHT22;4532;50.886;4.700;2023-01-29T07:36:27;1.90;99.90
8994;DHT22;4532;50.886;4.700;2023-01-29T07:38:55;2.00;99.90
8994;DHT22;4532;50.886;4.700;2023-01-29T07:41:22;2.00;99.90
8994;DHT22;4532;50.886;4.700;2023-01-29T07:43:52;2.00;99.90
8994;DHT22;4532;50.886;4.700;2023-01-29T07:46:19;2.00;99.90
8994;DHT22;4532;50.886;4.700;2023-01-29T07:48:46;2.10;99.90
8994;DHT22;4532;50.886;4.700;2023-01-29T07:51:16;2.10;99.90
8994;DHT22;4532;50.886;4.700;2023-01-29T07:53:44;2.10;99.90
8994;DHT22;4532;50.886;4.700;2023-01-29T07:56:16;2.10;99.90
8994;DHT22;4532;50.886;4.700;2023-01-29T07:58:45;2.20;99.90
8994;DHT22;4532;50.886;4.700;2023-01-29T08:01:13;2.20;99.90
8994;DHT22;4532;50.886;4.700;2023-01-29T08:03:46;2.20;99.90
8994;DHT22;4532;50.886;4.700;2023-01-29T08:06:16;2.20;99.90
8994;DHT22;4532;50.886;4.700;2023-01-29T08:08:43;2.20;99.90
8994;DHT22;4532;50.886;4.700;2023-01-29T08:11:13;2.30;99.90
8994;DHT22;4532;50.886;4.700;2023-01-29T08:13:45;2.30;99.90
8994;DHT22;4532;50.886;4.700;2023-01-29T08:16:15;2.30;99.90
8994;DHT22;4532;50.886;4.700;2023-01-29T08:18:45;2.30;99.90
8994;DHT22;4532;50.886;4.700;2023-01-29T08:21:16;2.40;99.90
8994;DHT22;4532;50.886;4.700;2023-01-29T08:23:44;2.40;99.90
8994;DHT22;4532;50.886;4.700;2023-01-29T08:26:11;2.40;99.90
8994;DHT22;4532;50.886;4.700;2023-01-29T08:28:38;2.40;99.90
8994;DHT22;4532;50.886;4.700;2023-01-29T08:31:15;2.50;99.90
8994;DHT22;4532;50.886;4.700;2023-01-29T08:33:46;2.50;99.90
8994;DHT22;4532;50.886;4.700;2023-01-29T08:36:15;2.50;99.90
8994;DHT22;4532;50.886;4.700;2023-01-29T08:38:45;2.60;99.90
8994;DHT22;4532;50.886;4.700;2023-01-29T08:41:17;2.60;99.90
8994;DHT22;4532;50.886;4.700;2023-01-29T08:43:44;2.70;99.90
8994;DHT22;4532;50.886;4.700;2023-01-29T08:46:12;2.70;99.90
8994;DHT22;4532;50.886;4.700;2023-01-29T08:48:42;2.70;99.90
8994;DHT22;4532;50.886;4.700;2023-01-29T08:51:11;2.70;99.90
8994;DHT22;4532;50.886;4.700;2023-01-29T08:53:45;2.80;99.90
8994;DHT22;4532;50.886;4.700;2023-01-29T08:56:12;2.80;99.90
8994;DHT22;4532;50.886;4.700;2023-01-29T08:58:42;2.80;99.90
8994;DHT22;4532;50.886;4.700;2023-01-29T09:01:10;2.80;99.90
8994;DHT22;4532;50.886;4.700;2023-01-29T09:03:46;2.90;99.90
8994;DHT22;4532;50.886;4.700;2023-01-29T09:06:13;3.00;99.90
8994;DHT22;4532;50.886;4.700;2023-01-29T09:08:41;2.90;99.90
8994;DHT22;4532;50.886;4.700;2023-01-29T09:11:08;3.00;99.90
8994;DHT22;4532;50.886;4.700;2023-01-29T09:13:36;3.00;99.90
8994;DHT22;4532;50.886;4.700;2023-01-29T09:16:08;3.10;99.90
8994;DHT22;4532;50.886;4.700;2023-01-29T09:18:35;3.10;99.90
8994;DHT22;4532;50.886;4.700;2023-01-29T09:21:03;3.10;99.90
8994;DHT22;4532;50.886;4.700;2023-01-29T09:23:33;3.10;99.90
8994;DHT22;4532;50.886;4.700;2023-01-29T09:26:00;3.20;99.90
8994;DHT22;4532;50.886;4.700;2023-01-29T09:28:27;3.20;99.90
8994;DHT22;4532;50.886;4.700;2023-01-29T09:30:55;3.20;99.90
8994;DHT22;4532;50.886;4.700;2023-01-29T09:33:22;3.30;99.90
8994;DHT22;4532;50.886;4.700;2023-01-29T09:35:53;3.30;99.90
8994;DHT22;4532;50.886;4.700;2023-01-29T09:38:22;3.30;99.90
8994;DHT22;4532;50.886;4.700;2023-01-29T09:43:54;3.40;99.90
8994;DHT22;4532;50.886;4.700;2023-01-29T09:46:40;3.40;99.90
8994;DHT22;4532;50.886;4.700;2023-01-29T09:49:21;3.50;99.90
8994;DHT22;4532;50.886;4.700;2023-01-29T09:51:54;3.50;99.90
8994;DHT22;4532;50.886;4.700;2023-01-29T09:54:23;3.50;99.90
8994;DHT22;4532;50.886;4.700;2023-01-29T09:56:57;3.50;99.90
8994;DHT22;4532;50.886;4.700;2023-01-29T09:59:31;3.50;99.90
8994;DHT22;4532;50.886;4.700;2023-01-29T10:21:59;3.70;99.90
8994;DHT22;4532;50.886;4.700;2023-01-29T10:27:21;3.70;99.90
8994;DHT22;4532;50.886;4.700;2023-01-29T10:29:52;3.70;99.90
8994;DHT22;4532;50.886;4.700;2023-01-29T10:32:22;3.70;99.90
8994;DHT22;4532;50.886;4.700;2023-01-29T10:35:02;3.80;99.90
8994;DHT22;4532;50.886;4.700;2023-01-29T10:37:42;3.80;99.90
8994;DHT22;4532;50.886;4.700;2023-01-29T10:40:20;3.80;99.90
8994;DHT22;4532;50.886;4.700;2023-01-29T10:56:34;4.00;99.90
8994;DHT22;4532;50.886;4.700;2023-01-29T11:01:50;4.10;99.90
8994;DHT22;4532;50.886;4.700;2023-01-29T11:04:17;4.10;99.90
8994;DHT22;4532;50.886;4.700;2023-01-29T11:06:45;4.10;99.90
8994;DHT22;4532;50.886;4.700;2023-01-29T11:12:12;4.20;99.90
8994;DHT22;4532;50.886;4.700;2023-01-29T11:15:06;4.20;99.90
8994;DHT22;4532;50.886;4.700;2023-01-29T11:17:41;4.20;99.90
8994;DHT22;4532;50.886;4.700;2023-01-29T11:20:30;4.20;99.90
8994;DHT22;4532;50.886;4.700;2023-01-29T11:22:58;4.30;99.90
8994;DHT22;4532;50.886;4.700;2023-01-29T11:25:28;4.30;99.90
8994;DHT22;4532;50.886;4.700;2023-01-29T11:28:00;4.30;99.90
8994;DHT22;4532;50.886;4.700;2023-01-29T11:30:31;4.30;99.90
8994;DHT22;4532;50.886;4.700;2023-01-29T11:33:16;4.40;99.90
8994;DHT22;4532;50.886;4.700;2023-01-29T11:35:44;4.40;99.90
8994;DHT22;4532;50.886;4.700;2023-01-29T11:40:42;4.40;99.90
8994;DHT22;4532;50.886;4.700;2023-01-29T11:43:15;4.50;99.90
8994;DHT22;4532;50.886;4.700;2023-01-29T11:45:46;4.50;99.90
8994;DHT22;4532;50.886;4.700;2023-01-29T11:48:21;4.50;99.90
8994;DHT22;4532;50.886;4.700;2023-01-29T11:50:57;4.60;99.90
8994;DHT22;4532;50.886;4.700;2023-01-29T11:53:39;4.60;99.90
8994;DHT22;4532;50.886;4.700;2023-01-29T11:56:28;4.60;99.90
8994;DHT22;4532;50.886;4.700;2023-01-29T11:59:00;4.70;99.90
8994;DHT22;4532;50.886;4.700;2023-01-29T12:01:35;4.60;99.90
8994;DHT22;4532;50.886;4.700;2023-01-29T12:06:47;4.80;99.90
8994;DHT22;4532;50.886;4.700;2023-01-29T12:09:26;4.80;99.90
8994;DHT22;4532;50.886;4.700;2023-01-29T12:11:54;4.80;99.90
8994;DHT22;4532;50.886;4.700;2023-01-29T12:14:29;4.90;99.90
8994;DHT22;4532;50.886;4.700;2023-01-29T12:20:05;4.90;99.90
8994;DHT22;4532;50.886;4.700;2023-01-29T12:25:40;5.00;99.90
8994;DHT22;4532;50.886;4.700;2023-01-29T12:36:24;5.20;99.90
8994;DHT22;4532;50.886;4.700;2023-01-29T12:38:53;5.20;99.90
8994;DHT22;4532;50.886;4.700;2023-01-29T12:41:53;5.30;99.90
8994;DHT22;4532;50.886;4.700;2023-01-29T12:44:33;5.30;99.90
8994;DHT22;4532;50.886;4.700;2023-01-29T12:47:06;5.30;99.90
8994;DHT22;4532;50.886;4.700;2023-01-29T12:49:40;5.40;99.90
8994;DHT22;4532;50.886;4.700;2023-01-29T12:52:16;5.40;99.90
8994;DHT22;4532;50.886;4.700;2023-01-29T12:55:06;5.50;99.90
8994;DHT22;4532;50.886;4.700;2023-01-29T12:57:40;5.50;99.90
8994;DHT22;4532;50.886;4.700;2023-01-29T13:00:16;5.50;99.90
8994;DHT22;4532;50.886;4.700;2023-01-29T13:05:38;5.60;99.90
8994;DHT22;4532;50.886;4.700;2023-01-29T13:08:15;5.70;99.90
8994;DHT22;4532;50.886;4.700;2023-01-29T13:10:50;5.70;99.90
8994;DHT22;4532;50.886;4.700;2023-01-29T13:13:30;5.70;99.90
8994;DHT22;4532;50.886;4.700;2023-01-29T13:15:59;5.70;99.90
8994;DHT22;4532;50.886;4.700;2023-01-29T13:21:17;5.80;99.90
8994;DHT22;4532;50.886;4.700;2023-01-29T13:23:55;5.80;99.90
8994;DHT22;4532;50.886;4.700;2023-01-29T13:26:23;5.80;99.90
8994;DHT22;4532;50.886;4.700;2023-01-29T13:28:54;5.90;99.90
8994;DHT22;4532;50.886;4.700;2023-01-29T13:31:36;5.90;99.90
8994;DHT22;4532;50.886;4.700;2023-01-29T13:36:32;5.90;99.90
8994;DHT22;4532;50.886;4.700;2023-01-29T13:39:07;5.90;99.90
8994;DHT22;4532;50.886;4.700;2023-01-29T13:41:40;6.00;99.90
8994;DHT22;4532;50.886;4.700;2023-01-29T13:50:00;6.00;99.90
8994;DHT22;4532;50.886;4.700;2023-01-29T13:52:37;6.00;99.90
8994;DHT22;4532;50.886;4.700;2023-01-29T13:57:53;6.10;99.90
8994;DHT22;4532;50.886;4.700;2023-01-29T14:10:40;6.20;99.90
8994;DHT22;4532;50.886;4.700;2023-01-29T14:18:26;6.20;99.90
8994;DHT22;4532;50.886;4.700;2023-01-29T14:21:20;6.10;99.90
8994;DHT22;4532;50.886;4.700;2023-01-29T14:23:58;6.20;99.90
8994;DHT22;4532;50.886;4.700;2023-01-29T14:34:50;6.10;99.90
8994;DHT22;4532;50.886;4.700;2023-01-29T14:37:40;6.10;99.90
8994;DHT22;4532;50.886;4.700;2023-01-29T14:40:19;6.10;99.90
8994;DHT22;4532;50.886;4.700;2023-01-29T14:43:07;6.10;99.90
8994;DHT22;4532;50.886;4.700;2023-01-29T14:45:46;6.10;99.90
8994;DHT22;4532;50.886;4.700;2023-01-29T14:48:46;6.10;99.90
8994;DHT22;4532;50.886;4.700;2023-01-29T14:51:15;6.10;99.90
8994;DHT22;4532;50.886;4.700;2023-01-29T14:53:55;6.10;99.90
8994;DHT22;4532;50.886;4.700;2023-01-29T14:56:51;6.10;99.90
8994;DHT22;4532;50.886;4.700;2023-01-29T14:59:34;6.10;99.90
8994;DHT22;4532;50.886;4.700;2023-01-29T15:02:16;6.10;99.90
8994;DHT22;4532;50.886;4.700;2023-01-29T15:04:49;6.10;99.90
8994;DHT22;4532;50.886;4.700;2023-01-29T15:10:24;6.10;99.90
8994;DHT22;4532;50.886;4.700;2023-01-29T15:15:51;6.10;99.90
8994;DHT22;4532;50.886;4.700;2023-01-29T15:18:49;6.10;99.90
8994;DHT22;4532;50.886;4.700;2023-01-29T15:21:20;6.10;99.90
8994;DHT22;4532;50.886;4.700;2023-01-29T15:24:05;6.00;99.90
8994;DHT22;4532;50.886;4.700;2023-01-29T15:26:34;6.00;99.90
8994;DHT22;4532;50.886;4.700;2023-01-29T15:29:02;6.10;99.90
8994;DHT22;4532;50.886;4.700;2023-01-29T15:31:33;6.10;99.90
8994;DHT22;4532;50.886;4.700;2023-01-29T15:34:05;6.10;99.90
8994;DHT22;4532;50.886;4.700;2023-01-29T15:36:35;6.10;99.90
8994;DHT22;4532;50.886;4.700;2023-01-29T15:39:16;6.10;99.90
8994;DHT22;4532;50.886;4.700;2023-01-29T15:41:49;6.10;99.90
8994;DHT22;4532;50.886;4.700;2023-01-29T15:44:21;6.10;99.90
8994;DHT22;4532;50.886;4.700;2023-01-29T15:46:51;6.10;99.90
8994;DHT22;4532;50.886;4.700;2023-01-29T15:49:31;6.10;99.90
8994;DHT22;4532;50.886;4.700;2023-01-29T15:52:07;6.10;99.90
8994;DHT22;4532;50.886;4.700;2023-01-29T15:54:42;6.10;99.90
8994;DHT22;4532;50.886;4.700;2023-01-29T15:57:28;6.10;99.90
8994;DHT22;4532;50.886;4.700;2023-01-29T15:59:57;6.10;99.90
8994;DHT22;4532;50.886;4.700;2023-01-29T16:05:02;6.10;99.90
8994;DHT22;4532;50.886;4.700;2023-01-29T16:07:34;6.00;99.90
8994;DHT22;4532;50.886;4.700;2023-01-29T16:10:05;6.10;99.90
8994;DHT22;4532;50.886;4.700;2023-01-29T16:12:33;6.00;99.90
8994;DHT22;4532;50.886;4.700;2023-01-29T16:15:02;6.00;99.90
8994;DHT22;4532;50.886;4.700;2023-01-29T16:17:32;6.10;99.90
8994;DHT22;4532;50.886;4.700;2023-01-29T16:20:29;6.00;99.90
8994;DHT22;4532;50.886;4.700;2023-01-29T16:22:59;6.00;99.90
8994;DHT22;4532;50.886;4.700;2023-01-29T16:25:28;6.00;99.90
8994;DHT22;4532;50.886;4.700;2023-01-29T16:27:57;6.00;99.90
8994;DHT22;4532;50.886;4.700;2023-01-29T16:30:28;6.00;99.90
8994;DHT22;4532;50.886;4.700;2023-01-29T16:33:06;6.00;99.90
8994;DHT22;4532;50.886;4.700;2023-01-29T16:35:42;6.00;99.90
8994;DHT22;4532;50.886;4.700;2023-01-29T16:38:27;6.00;99.90
8994;DHT22;4532;50.886;4.700;2023-01-29T16:43:50;6.00;99.90
8994;DHT22;4532;50.886;4.700;2023-01-29T16:48:48;6.00;99.90
8994;DHT22;4532;50.886;4.700;2023-01-29T16:51:27;6.00;99.90
8994;DHT22;4532;50.886;4.700;2023-01-29T16:54:29;6.00;99.90
8994;DHT22;4532;50.886;4.700;2023-01-29T16:56:54;6.00;99.90
8994;DHT22;4532;50.886;4.700;2023-01-29T16:59:34;6.00;99.90
8994;DHT22;4532;50.886;4.700;2023-01-29T17:02:27;6.00;99.90
8994;DHT22;4532;50.886;4.700;2023-01-29T17:04:59;6.00;99.90
8994;DHT22;4532;50.886;4.700;2023-01-29T17:07:28;6.00;99.90
8994;DHT22;4532;50.886;4.700;2023-01-29T17:10:00;5.90;99.90
8994;DHT22;4532;50.886;4.700;2023-01-29T17:12:30;5.90;99.90
8994;DHT22;4532;50.886;4.700;2023-01-29T17:15:02;5.90;99.90
8994;DHT22;4532;50.886;4.700;2023-01-29T17:17:31;5.80;99.90
8994;DHT22;4532;50.886;4.700;2023-01-29T17:20:13;5.80;99.90
8994;DHT22;4532;50.886;4.700;2023-01-29T17:22:43;5.90;99.90
8994;DHT22;4532;50.886;4.700;2023-01-29T17:25:16;5.90;99.90
8994;DHT22;4532;50.886;4.700;2023-01-29T17:27:44;5.80;99.90
8994;DHT22;4532;50.886;4.700;2023-01-29T17:30:21;5.80;99.90
8994;DHT22;4532;50.886;4.700;2023-01-29T17:32:49;5.90;99.90
8994;DHT22;4532;50.886;4.700;2023-01-29T17:35:19;5.80;99.90
8994;DHT22;4532;50.886;4.700;2023-01-29T17:37:47;5.80;99.90
8994;DHT22;4532;50.886;4.700;2023-01-29T17:40:32;5.90;99.90
8994;DHT22;4532;50.886;4.700;2023-01-29T17:43:00;5.90;99.90
8994;DHT22;4532;50.886;4.700;2023-01-29T17:45:27;5.80;99.90
8994;DHT22;4532;50.886;4.700;2023-01-29T17:47:55;5.80;99.90
8994;DHT22;4532;50.886;4.700;2023-01-29T17:50:27;5.80;99.90
8994;DHT22;4532;50.886;4.700;2023-01-29T17:52:56;5.80;99.90
8994;DHT22;4532;50.886;4.700;2023-01-29T17:55:27;5.80;99.90
8994;DHT22;4532;50.886;4.700;2023-01-29T17:57:57;5.70;99.90
8994;DHT22;4532;50.886;4.700;2023-01-29T18:00:24;5.80;99.90
8994;DHT22;4532;50.886;4.700;2023-01-29T18:02:54;5.70;99.90
8994;DHT22;4532;50.886;4.700;2023-01-29T18:05:27;5.80;99.90
8994;DHT22;4532;50.886;4.700;2023-01-29T18:07:55;5.80;99.90
8994;DHT22;4532;50.886;4.700;2023-01-29T18:10:25;5.80;99.90
8994;DHT22;4532;50.886;4.700;2023-01-29T18:12:56;5.80;99.90
8994;DHT22;4532;50.886;4.700;2023-01-29T18:15:24;5.80;99.90
8994;DHT22;4532;50.886;4.700;2023-01-29T18:17:56;5.70;99.90
8994;DHT22;4532;50.886;4.700;2023-01-29T18:20:26;5.80;99.90
8994;DHT22;4532;50.886;4.700;2023-01-29T18:22:53;5.80;99.90
8994;DHT22;4532;50.886;4.700;2023-01-29T18:25:23;5.80;99.90
8994;DHT22;4532;50.886;4.700;2023-01-29T18:27:54;5.80;99.90
8994;DHT22;4532;50.886;4.700;2023-01-29T18:30:23;5.80;99.90
8994;DHT22;4532;50.886;4.700;2023-01-29T18:32:53;5.80;99.90
8994;DHT22;4532;50.886;4.700;2023-01-29T18:35:25;5.70;99.90
8994;DHT22;4532;50.886;4.700;2023-01-29T18:37:53;5.80;99.90
8994;DHT22;4532;50.886;4.700;2023-01-29T18:40:22;5.80;99.90
8994;DHT22;4532;50.886;4.700;2023-01-29T18:42:52;5.80;99.90
8994;DHT22;4532;50.886;4.700;2023-01-29T18:45:22;5.70;99.90
8994;DHT22;4532;50.886;4.700;2023-01-29T18:47:54;5.70;99.90
8994;DHT22;4532;50.886;4.700;2023-01-29T18:50:24;5.70;99.90
8994;DHT22;4532;50.886;4.700;2023-01-29T18:52:54;5.70;99.90
8994;DHT22;4532;50.886;4.700;2023-01-29T18:55:28;5.70;99.90
8994;DHT22;4532;50.886;4.700;2023-01-29T18:57:58;5.70;99.90
8994;DHT22;4532;50.886;4.700;2023-01-29T19:00:45;5.70;99.90
8994;DHT22;4532;50.886;4.700;2023-01-29T19:03:18;5.70;99.90
8994;DHT22;4532;50.886;4.700;2023-01-29T19:05:45;5.70;99.90
8994;DHT22;4532;50.886;4.700;2023-01-29T19:08:12;5.60;99.90
8994;DHT22;4532;50.886;4.700;2023-01-29T19:10:46;5.60;99.90
8994;DHT22;4532;50.886;4.700;2023-01-29T19:13:18;5.70;99.90
8994;DHT22;4532;50.886;4.700;2023-01-29T19:15:45;5.70;99.90
8994;DHT22;4532;50.886;4.700;2023-01-29T19:18:17;5.70;99.90
8994;DHT22;4532;50.886;4.700;2023-01-29T19:20:49;5.70;99.90
8994;DHT22;4532;50.886;4.700;2023-01-29T19:23:18;5.70;99.90
8994;DHT22;4532;50.886;4.700;2023-01-29T19:25:50;5.80;99.90
8994;DHT22;4532;50.886;4.700;2023-01-29T19:28:17;5.70;99.90
8994;DHT22;4532;50.886;4.700;2023-01-29T19:30:45;5.70;99.90
8994;DHT22;4532;50.886;4.700;2023-01-29T19:33:12;5.70;99.90
8994;DHT22;4532;50.886;4.700;2023-01-29T19:35:43;5.70;99.90
8994;DHT22;4532;50.886;4.700;2023-01-29T19:38:13;5.70;99.90
8994;DHT22;4532;50.886;4.700;2023-01-29T19:40:47;5.70;99.90
8994;DHT22;4532;50.886;4.700;2023-01-29T19:43:17;5.70;99.90
8994;DHT22;4532;50.886;4.700;2023-01-29T19:45:45;5.70;99.90
8994;DHT22;4532;50.886;4.700;2023-01-29T19:48:17;5.70;99.90